sensor_id;sensor_type;location;lat;lon;timestamp;P1;durP1;ratioP1;P2;durP2;ratioP2
67193;SDS011;54121;53.508;49.422;2023-03-12T00:02:04;1.85;;;1.60;;
67193;SDS011;54121;53.508;49.422;2023-03-12T00:04:31;2.63;;;1.73;;
67193;SDS011;54121;53.508;49.422;2023-03-12T00:06:59;2.60;;;1.60;;
67193;SDS011;54121;53.508;49.422;2023-03-12T00:09:25;2.08;;;1.88;;
67193;SDS011;54121;53.508;49.422;2023-03-12T00:11:52;2.47;;;1.40;;
67193;SDS011;54121;53.508;49.422;2023-03-12T00:14:19;1.77;;;1.52;;
67193;SDS011;54121;53.508;49.422;2023-03-12T00:16:45;2.10;;;1.60;;
67193;SDS011;54121;53.508;49.422;2023-03-12T00:19:12;2.47;;;1.63;;
67193;SDS011;54121;53.508;49.422;2023-03-12T00:21:39;2.08;;;1.48;;
67193;SDS011;54121;53.508;49.422;2023-03-12T00:24:06;1.98;;;1.52;;
67193;SDS011;54121;53.508;49.422;2023-03-12T00:26:32;1.48;;;1.20;;
67193;SDS011;54121;53.508;49.422;2023-03-12T00:28:59;2.38;;;1.77;;
67193;SDS011;54121;53.508;49.422;2023-03-12T00:31:27;2.50;;;1.30;;
67193;SDS011;54121;53.508;49.422;2023-03-12T00:33:57;1.17;;;1.02;;
67193;SDS011;54121;53.508;49.422;2023-03-12T00:36:27;2.50;;;1.20;;
67193;SDS011;54121;53.508;49.422;2023-03-12T00:38:56;1.58;;;1.20;;
67193;SDS011;54121;53.508;49.422;2023-03-12T00:41:25;1.50;;;1.17;;
67193;SDS011;54121;53.508;49.422;2023-03-12T00:43:52;3.85;;;1.38;;
67193;SDS011;54121;53.508;49.422;2023-03-12T00:46:19;1.92;;;1.50;;
67193;SDS011;54121;53.508;49.422;2023-03-12T00:48:46;3.85;;;1.60;;
67193;SDS011;54121;53.508;49.422;2023-03-12T00:51:13;2.22;;;1.25;;
67193;SDS011;54121;53.508;49.422;2023-03-12T00:53:40;2.13;;;1.63;;
67193;SDS011;54121;53.508;49.422;2023-03-12T00:56:07;2.25;;;1.30;;
67193;SDS011;54121;53.508;49.422;2023-03-12T00:58:34;0.75;;;0.65;;
67193;SDS011;54121;53.508;49.422;2023-03-12T01:01:01;0.88;;;0.80;;
67193;SDS011;54121;53.508;49.422;2023-03-12T01:03:27;1.35;;;1.17;;
67193;SDS011;54121;53.508;49.422;2023-03-12T01:05:54;2.50;;;1.13;;
67193;SDS011;54121;53.508;49.422;2023-03-12T01:08:21;1.67;;;1.23;;
67193;SDS011;54121;53.508;49.422;2023-03-12T01:10:48;1.45;;;1.30;;
67193;SDS011;54121;53.508;49.422;2023-03-12T01:13:15;2.15;;;1.50;;
67193;SDS011;54121;53.508;49.422;2023-03-12T01:15:42;1.42;;;1.17;;
67193;SDS011;54121;53.508;49.422;2023-03-12T01:18:09;2.17;;;1.15;;
67193;SDS011;54121;53.508;49.422;2023-03-12T01:20:36;5.32;;;1.45;;
67193;SDS011;54121;53.508;49.422;2023-03-12T01:23:05;3.40;;;1.17;;
67193;SDS011;54121;53.508;49.422;2023-03-12T01:25:32;2.30;;;1.35;;
67193;SDS011;54121;53.508;49.422;2023-03-12T01:27:59;2.72;;;1.65;;
67193;SDS011;54121;53.508;49.422;2023-03-12T01:30:27;1.58;;;1.25;;
67193;SDS011;54121;53.508;49.422;2023-03-12T01:32:54;1.92;;;1.40;;
67193;SDS011;54121;53.508;49.422;2023-03-12T01:35:21;1.75;;;1.20;;
67193;SDS011;54121;53.508;49.422;2023-03-12T01:37:48;2.33;;;1.23;;
67193;SDS011;54121;53.508;49.422;2023-03-12T01:40:15;2.15;;;1.25;;
67193;SDS011;54121;53.508;49.422;2023-03-12T01:42:55;1.77;;;1.25;;
67193;SDS011;54121;53.508;49.422;2023-03-12T01:48:24;1.88;;;1.33;;
67193;SDS011;54121;53.508;49.422;2023-03-12T01:50:52;1.75;;;1.05;;
67193;SDS011;54121;53.508;49.422;2023-03-12T01:53:19;1.88;;;1.23;;
67193;SDS011;54121;53.508;49.422;2023-03-12T01:55:45;1.38;;;1.20;;
67193;SDS011;54121;53.508;49.422;2023-03-12T01:58:12;2.22;;;1.10;;
67193;SDS011;54121;53.508;49.422;2023-03-12T02:00:39;4.25;;;1.40;;
67193;SDS011;54121;53.508;49.422;2023-03-12T02:03:06;3.08;;;1.40;;
67193;SDS011;54121;53.508;49.422;2023-03-12T02:05:40;1.80;;;1.25;;
67193;SDS011;54121;53.508;49.422;2023-03-12T02:08:13;1.70;;;1.30;;
67193;SDS011;54121;53.508;49.422;2023-03-12T02:10:41;2.00;;;1.48;;
67193;SDS011;54121;53.508;49.422;2023-03-12T02:13:08;1.70;;;1.60;;
67193;SDS011;54121;53.508;49.422;2023-03-12T02:15:35;2.75;;;1.65;;
67193;SDS011;54121;53.508;49.422;2023-03-12T02:18:06;1.83;;;1.60;;
67193;SDS011;54121;53.508;49.422;2023-03-12T02:21:21;1.52;;;1.42;;
67193;SDS011;54121;53.508;49.422;2023-03-12T02:23:30;1.45;;;1.08;;
67193;SDS011;54121;53.508;49.422;2023-03-12T02:26:00;1.33;;;1.23;;
67193;SDS011;54121;53.508;49.422;2023-03-12T02:28:30;2.80;;;1.93;;
67193;SDS011;54121;53.508;49.422;2023-03-12T02:31:06;2.35;;;1.55;;
67193;SDS011;54121;53.508;49.422;2023-03-12T02:33:35;3.38;;;1.80;;
67193;SDS011;54121;53.508;49.422;2023-03-12T02:36:02;1.98;;;1.75;;
67193;SDS011;54121;53.508;49.422;2023-03-12T02:38:39;2.85;;;2.05;;
67193;SDS011;54121;53.508;49.422;2023-03-12T02:43:44;2.15;;;1.60;;
67193;SDS011;54121;53.508;49.422;2023-03-12T02:46:14;2.60;;;1.90;;
67193;SDS011;54121;53.508;49.422;2023-03-12T02:48:41;2.58;;;1.88;;
67193;SDS011;54121;53.508;49.422;2023-03-12T02:51:08;4.78;;;1.90;;
67193;SDS011;54121;53.508;49.422;2023-03-12T02:53:35;3.72;;;2.00;;
67193;SDS011;54121;53.508;49.422;2023-03-12T02:56:02;2.38;;;1.85;;
67193;SDS011;54121;53.508;49.422;2023-03-12T02:58:29;2.30;;;2.10;;
67193;SDS011;54121;53.508;49.422;2023-03-12T03:00:56;3.78;;;2.17;;
67193;SDS011;54121;53.508;49.422;2023-03-12T03:03:23;1.48;;;1.38;;
67193;SDS011;54121;53.508;49.422;2023-03-12T03:05:50;2.42;;;2.05;;
67193;SDS011;54121;53.508;49.422;2023-03-12T03:08:17;4.30;;;2.40;;
67193;SDS011;54121;53.508;49.422;2023-03-12T03:10:43;5.82;;;2.15;;
67193;SDS011;54121;53.508;49.422;2023-03-12T03:13:10;2.00;;;1.80;;
67193;SDS011;54121;53.508;49.422;2023-03-12T03:15:37;2.75;;;2.10;;
67193;SDS011;54121;53.508;49.422;2023-03-12T03:18:05;2.60;;;2.10;;
67193;SDS011;54121;53.508;49.422;2023-03-12T03:20:31;3.03;;;2.40;;
67193;SDS011;54121;53.508;49.422;2023-03-12T03:22:58;2.90;;;1.85;;
67193;SDS011;54121;53.508;49.422;2023-03-12T03:25:25;2.60;;;2.20;;
67193;SDS011;54121;53.508;49.422;2023-03-12T03:27:52;3.47;;;2.35;;
67193;SDS011;54121;53.508;49.422;2023-03-12T03:30:19;3.17;;;2.15;;
67193;SDS011;54121;53.508;49.422;2023-03-12T03:32:47;2.50;;;2.00;;
67193;SDS011;54121;53.508;49.422;2023-03-12T03:35:14;5.72;;;2.67;;
67193;SDS011;54121;53.508;49.422;2023-03-12T03:37:42;1.90;;;1.60;;
67193;SDS011;54121;53.508;49.422;2023-03-12T03:40:09;3.90;;;2.30;;
67193;SDS011;54121;53.508;49.422;2023-03-12T03:42:37;3.60;;;2.33;;
67193;SDS011;54121;53.508;49.422;2023-03-12T03:45:05;1.90;;;1.42;;
67193;SDS011;54121;53.508;49.422;2023-03-12T03:47:33;2.42;;;1.83;;
67193;SDS011;54121;53.508;49.422;2023-03-12T03:50:00;5.78;;;3.35;;
67193;SDS011;54121;53.508;49.422;2023-03-12T03:52:28;3.78;;;2.90;;
67193;SDS011;54121;53.508;49.422;2023-03-12T03:54:56;3.03;;;2.45;;
67193;SDS011;54121;53.508;49.422;2023-03-12T03:57:26;3.20;;;2.53;;
67193;SDS011;54121;53.508;49.422;2023-03-12T03:59:53;2.78;;;1.45;;
67193;SDS011;54121;53.508;49.422;2023-03-12T04:02:20;3.85;;;2.60;;
67193;SDS011;54121;53.508;49.422;2023-03-12T04:04:47;3.85;;;2.92;;
67193;SDS011;54121;53.508;49.422;2023-03-12T04:07:14;4.93;;;3.40;;
67193;SDS011;54121;53.508;49.422;2023-03-12T04:09:41;3.13;;;2.35;;
67193;SDS011;54121;53.508;49.422;2023-03-12T04:12:09;4.38;;;2.67;;
67193;SDS011;54121;53.508;49.422;2023-03-12T04:14:38;3.00;;;2.20;;
67193;SDS011;54121;53.508;49.422;2023-03-12T04:17:06;3.42;;;2.95;;
67193;SDS011;54121;53.508;49.422;2023-03-12T04:19:33;3.30;;;2.33;;
67193;SDS011;54121;53.508;49.422;2023-03-12T04:22:00;2.97;;;2.10;;
67193;SDS011;54121;53.508;49.422;2023-03-12T04:24:26;4.30;;;3.20;;
67193;SDS011;54121;53.508;49.422;2023-03-12T04:26:53;4.85;;;2.50;;
67193;SDS011;54121;53.508;49.422;2023-03-12T04:29:20;3.03;;;2.70;;
67193;SDS011;54121;53.508;49.422;2023-03-12T04:31:47;2.95;;;2.65;;
67193;SDS011;54121;53.508;49.422;2023-03-12T04:34:14;4.43;;;2.47;;
67193;SDS011;54121;53.508;49.422;2023-03-12T04:36:40;2.72;;;2.22;;
67193;SDS011;54121;53.508;49.422;2023-03-12T04:39:07;4.03;;;2.38;;
67193;SDS011;54121;53.508;49.422;2023-03-12T04:41:35;3.72;;;2.40;;
67193;SDS011;54121;53.508;49.422;2023-03-12T04:44:02;2.65;;;1.77;;
67193;SDS011;54121;53.508;49.422;2023-03-12T04:46:30;3.00;;;2.38;;
67193;SDS011;54121;53.508;49.422;2023-03-12T04:48:56;2.92;;;2.25;;
67193;SDS011;54121;53.508;49.422;2023-03-12T04:51:27;4.10;;;2.55;;
67193;SDS011;54121;53.508;49.422;2023-03-12T04:53:54;3.10;;;2.67;;
67193;SDS011;54121;53.508;49.422;2023-03-12T04:56:21;3.08;;;2.72;;
67193;SDS011;54121;53.508;49.422;2023-03-12T04:58:48;4.57;;;2.58;;
67193;SDS011;54121;53.508;49.422;2023-03-12T05:01:20;3.83;;;2.63;;
67193;SDS011;54121;53.508;49.422;2023-03-12T05:03:50;4.03;;;2.90;;
67193;SDS011;54121;53.508;49.422;2023-03-12T05:06:17;2.88;;;2.50;;
67193;SDS011;54121;53.508;49.422;2023-03-12T05:08:45;3.10;;;2.53;;
67193;SDS011;54121;53.508;49.422;2023-03-12T05:11:12;3.60;;;3.30;;
67193;SDS011;54121;53.508;49.422;2023-03-12T05:13:39;4.57;;;3.30;;
67193;SDS011;54121;53.508;49.422;2023-03-12T05:16:07;3.75;;;2.08;;
67193;SDS011;54121;53.508;49.422;2023-03-12T05:18:34;3.75;;;2.75;;
67193;SDS011;54121;53.508;49.422;2023-03-12T05:21:03;4.00;;;2.65;;
67193;SDS011;54121;53.508;49.422;2023-03-12T05:23:33;2.47;;;2.28;;
67193;SDS011;54121;53.508;49.422;2023-03-12T05:26:00;4.88;;;3.22;;
67193;SDS011;54121;53.508;49.422;2023-03-12T05:28:27;4.10;;;3.50;;
67193;SDS011;54121;53.508;49.422;2023-03-12T05:30:54;4.75;;;2.95;;
67193;SDS011;54121;53.508;49.422;2023-03-12T05:33:22;3.95;;;3.38;;
67193;SDS011;54121;53.508;49.422;2023-03-12T05:35:50;5.43;;;3.65;;
67193;SDS011;54121;53.508;49.422;2023-03-12T05:38:16;3.47;;;3.17;;
67193;SDS011;54121;53.508;49.422;2023-03-12T05:40:50;4.65;;;3.60;;
67193;SDS011;54121;53.508;49.422;2023-03-12T05:43:21;4.78;;;2.88;;
67193;SDS011;54121;53.508;49.422;2023-03-12T05:45:48;5.80;;;3.55;;
67193;SDS011;54121;53.508;49.422;2023-03-12T05:48:15;4.85;;;3.50;;
67193;SDS011;54121;53.508;49.422;2023-03-12T05:50:42;4.32;;;3.90;;
67193;SDS011;54121;53.508;49.422;2023-03-12T05:53:10;7.53;;;4.35;;
67193;SDS011;54121;53.508;49.422;2023-03-12T05:55:38;5.90;;;4.68;;
67193;SDS011;54121;53.508;49.422;2023-03-12T05:58:05;5.90;;;4.38;;
67193;SDS011;54121;53.508;49.422;2023-03-12T06:00:33;6.70;;;5.50;;
67193;SDS011;54121;53.508;49.422;2023-03-12T06:03:03;6.10;;;5.17;;
67193;SDS011;54121;53.508;49.422;2023-03-12T06:05:31;10.20;;;6.28;;
67193;SDS011;54121;53.508;49.422;2023-03-12T06:07:59;11.82;;;7.00;;
67193;SDS011;54121;53.508;49.422;2023-03-12T06:10:26;9.10;;;6.75;;
67193;SDS011;54121;53.508;49.422;2023-03-12T06:12:53;11.80;;;6.80;;
67193;SDS011;54121;53.508;49.422;2023-03-12T06:15:20;8.23;;;6.90;;
67193;SDS011;54121;53.508;49.422;2023-03-12T06:17:47;6.57;;;5.63;;
67193;SDS011;54121;53.508;49.422;2023-03-12T06:20:14;8.77;;;7.30;;
67193;SDS011;54121;53.508;49.422;2023-03-12T06:22:41;8.82;;;6.50;;
67193;SDS011;54121;53.508;49.422;2023-03-12T06:25:08;11.15;;;6.03;;
67193;SDS011;54121;53.508;49.422;2023-03-12T06:27:35;10.68;;;7.20;;
67193;SDS011;54121;53.508;49.422;2023-03-12T06:30:03;10.05;;;8.38;;
67193;SDS011;54121;53.508;49.422;2023-03-12T06:32:30;10.77;;;8.23;;
67193;SDS011;54121;53.508;49.422;2023-03-12T06:34:58;11.60;;;8.25;;
67193;SDS011;54121;53.508;49.422;2023-03-12T06:37:29;13.38;;;7.20;;
67193;SDS011;54121;53.508;49.422;2023-03-12T06:39:56;10.98;;;7.82;;
67193;SDS011;54121;53.508;49.422;2023-03-12T06:42:23;9.82;;;8.05;;
67193;SDS011;54121;53.508;49.422;2023-03-12T06:44:51;13.15;;;9.48;;
67193;SDS011;54121;53.508;49.422;2023-03-12T06:47:19;10.90;;;8.25;;
67193;SDS011;54121;53.508;49.422;2023-03-12T06:49:46;14.00;;;9.27;;
67193;SDS011;54121;53.508;49.422;2023-03-12T06:52:13;10.43;;;8.48;;
67193;SDS011;54121;53.508;49.422;2023-03-12T06:54:39;12.45;;;9.40;;
67193;SDS011;54121;53.508;49.422;2023-03-12T06:57:07;15.02;;;9.32;;
67193;SDS011;54121;53.508;49.422;2023-03-12T06:59:33;13.32;;;10.73;;
67193;SDS011;54121;53.508;49.422;2023-03-12T07:02:00;12.70;;;9.85;;
67193;SDS011;54121;53.508;49.422;2023-03-12T07:04:27;11.20;;;7.75;;
67193;SDS011;54121;53.508;49.422;2023-03-12T07:06:54;12.57;;;9.77;;
67193;SDS011;54121;53.508;49.422;2023-03-12T07:09:21;13.98;;;10.63;;
67193;SDS011;54121;53.508;49.422;2023-03-12T07:11:48;15.68;;;10.50;;
67193;SDS011;54121;53.508;49.422;2023-03-12T07:14:15;12.73;;;7.47;;
67193;SDS011;54121;53.508;49.422;2023-03-12T07:16:42;10.80;;;7.70;;
67193;SDS011;54121;53.508;49.422;2023-03-12T07:19:09;12.10;;;10.90;;
67193;SDS011;54121;53.508;49.422;2023-03-12T07:21:36;12.23;;;10.10;;
67193;SDS011;54121;53.508;49.422;2023-03-12T07:24:02;12.68;;;10.75;;
67193;SDS011;54121;53.508;49.422;2023-03-12T07:26:32;12.70;;;9.85;;
67193;SDS011;54121;53.508;49.422;2023-03-12T07:29:00;12.43;;;10.52;;
67193;SDS011;54121;53.508;49.422;2023-03-12T07:31:28;14.35;;;12.23;;
67193;SDS011;54121;53.508;49.422;2023-03-12T07:33:55;12.60;;;9.95;;
67193;SDS011;54121;53.508;49.422;2023-03-12T07:36:22;12.35;;;10.02;;
67193;SDS011;54121;53.508;49.422;2023-03-12T07:38:49;13.52;;;11.30;;
67193;SDS011;54121;53.508;49.422;2023-03-12T07:41:16;12.73;;;9.68;;
67193;SDS011;54121;53.508;49.422;2023-03-12T07:43:43;10.50;;;8.75;;
67193;SDS011;54121;53.508;49.422;2023-03-12T07:46:10;10.90;;;8.13;;
67193;SDS011;54121;53.508;49.422;2023-03-12T07:48:37;14.15;;;10.70;;
67193;SDS011;54121;53.508;49.422;2023-03-12T07:51:05;12.82;;;11.48;;
67193;SDS011;54121;53.508;49.422;2023-03-12T07:53:32;12.60;;;10.70;;
67193;SDS011;54121;53.508;49.422;2023-03-12T07:55:59;12.48;;;9.85;;
67193;SDS011;54121;53.508;49.422;2023-03-12T07:58:26;13.15;;;9.63;;
67193;SDS011;54121;53.508;49.422;2023-03-12T08:00:54;11.85;;;8.88;;
67193;SDS011;54121;53.508;49.422;2023-03-12T08:03:22;12.95;;;9.63;;
67193;SDS011;54121;53.508;49.422;2023-03-12T08:05:59;13.43;;;9.70;;
67193;SDS011;54121;53.508;49.422;2023-03-12T08:08:28;11.15;;;9.73;;
67193;SDS011;54121;53.508;49.422;2023-03-12T08:10:56;12.48;;;11.13;;
67193;SDS011;54121;53.508;49.422;2023-03-12T08:13:25;11.60;;;10.20;;
67193;SDS011;54121;53.508;49.422;2023-03-12T08:15:52;9.02;;;7.43;;
67193;SDS011;54121;53.508;49.422;2023-03-12T08:18:20;15.65;;;11.70;;
67193;SDS011;54121;53.508;49.422;2023-03-12T08:20:51;10.70;;;8.35;;
67193;SDS011;54121;53.508;49.422;2023-03-12T08:23:20;13.52;;;10.75;;
67193;SDS011;54121;53.508;49.422;2023-03-12T08:25:48;13.55;;;10.95;;
67193;SDS011;54121;53.508;49.422;2023-03-12T08:28:16;10.65;;;8.75;;
67193;SDS011;54121;53.508;49.422;2023-03-12T08:30:45;8.82;;;6.50;;
67193;SDS011;54121;53.508;49.422;2023-03-12T08:33:14;12.98;;;10.02;;
67193;SDS011;54121;53.508;49.422;2023-03-12T08:35:41;12.80;;;9.77;;
67193;SDS011;54121;53.508;49.422;2023-03-12T08:38:09;11.02;;;6.93;;
67193;SDS011;54121;53.508;49.422;2023-03-12T08:40:36;13.52;;;8.00;;
67193;SDS011;54121;53.508;49.422;2023-03-12T08:43:03;11.68;;;10.02;;
67193;SDS011;54121;53.508;49.422;2023-03-12T08:45:32;14.43;;;10.65;;
67193;SDS011;54121;53.508;49.422;2023-03-12T08:48:01;13.52;;;12.05;;
67193;SDS011;54121;53.508;49.422;2023-03-12T08:50:29;13.50;;;8.98;;
67193;SDS011;54121;53.508;49.422;2023-03-12T08:52:57;11.90;;;10.10;;
67193;SDS011;54121;53.508;49.422;2023-03-12T08:55:25;12.88;;;9.93;;
67193;SDS011;54121;53.508;49.422;2023-03-12T08:57:55;14.00;;;11.38;;
67193;SDS011;54121;53.508;49.422;2023-03-12T09:00:22;11.07;;;7.75;;
67193;SDS011;54121;53.508;49.422;2023-03-12T09:02:49;12.35;;;8.75;;
67193;SDS011;54121;53.508;49.422;2023-03-12T09:05:18;14.52;;;10.55;;
67193;SDS011;54121;53.508;49.422;2023-03-12T09:07:45;13.85;;;9.20;;
67193;SDS011;54121;53.508;49.422;2023-03-12T09:10:15;15.57;;;11.23;;
67193;SDS011;54121;53.508;49.422;2023-03-12T09:12:42;13.40;;;10.07;;
67193;SDS011;54121;53.508;49.422;2023-03-12T09:15:11;12.80;;;8.30;;
67193;SDS011;54121;53.508;49.422;2023-03-12T09:17:38;13.52;;;9.23;;
67193;SDS011;54121;53.508;49.422;2023-03-12T09:20:05;14.30;;;10.60;;
67193;SDS011;54121;53.508;49.422;2023-03-12T09:22:35;14.63;;;11.83;;
67193;SDS011;54121;53.508;49.422;2023-03-12T09:25:03;13.73;;;11.40;;
67193;SDS011;54121;53.508;49.422;2023-03-12T09:27:34;14.30;;;11.18;;
67193;SDS011;54121;53.508;49.422;2023-03-12T09:30:06;10.52;;;9.10;;
67193;SDS011;54121;53.508;49.422;2023-03-12T09:32:34;12.57;;;10.10;;
67193;SDS011;54121;53.508;49.422;2023-03-12T09:35:01;12.45;;;11.15;;
67193;SDS011;54121;53.508;49.422;2023-03-12T09:37:29;9.02;;;7.20;;
67193;SDS011;54121;53.508;49.422;2023-03-12T09:39:57;14.23;;;10.30;;
67193;SDS011;54121;53.508;49.422;2023-03-12T09:42:26;12.00;;;10.60;;
67193;SDS011;54121;53.508;49.422;2023-03-12T09:45:01;12.57;;;9.52;;
67193;SDS011;54121;53.508;49.422;2023-03-12T09:47:32;13.23;;;9.35;;
67193;SDS011;54121;53.508;49.422;2023-03-12T09:50:04;10.95;;;6.85;;
67193;SDS011;54121;53.508;49.422;2023-03-12T09:52:34;12.98;;;11.05;;
67193;SDS011;54121;53.508;49.422;2023-03-12T09:55:18;11.00;;;8.18;;
67193;SDS011;54121;53.508;49.422;2023-03-12T09:57:47;10.30;;;7.80;;
67193;SDS011;54121;53.508;49.422;2023-03-12T10:00:17;10.82;;;9.13;;
67193;SDS011;54121;53.508;49.422;2023-03-12T10:05:54;10.68;;;8.45;;
67193;SDS011;54121;53.508;49.422;2023-03-12T10:08:32;10.57;;;7.55;;
67193;SDS011;54121;53.508;49.422;2023-03-12T10:11:04;13.88;;;9.10;;
67193;SDS011;54121;53.508;49.422;2023-03-12T10:16:36;11.80;;;9.23;;
67193;SDS011;54121;53.508;49.422;2023-03-12T10:22:00;12.18;;;9.50;;
67193;SDS011;54121;53.508;49.422;2023-03-12T10:24:38;11.05;;;8.73;;
67193;SDS011;54121;53.508;49.422;2023-03-12T10:27:15;11.90;;;9.70;;
67193;SDS011;54121;53.508;49.422;2023-03-12T10:29:44;11.82;;;9.77;;
67193;SDS011;54121;53.508;49.422;2023-03-12T10:32:14;10.77;;;9.68;;
67193;SDS011;54121;53.508;49.422;2023-03-12T10:34:51;11.88;;;9.32;;
67193;SDS011;54121;53.508;49.422;2023-03-12T10:37:25;9.80;;;8.80;;
67193;SDS011;54121;53.508;49.422;2023-03-12T10:39:58;10.48;;;8.77;;
67193;SDS011;54121;53.508;49.422;2023-03-12T10:42:28;9.85;;;8.52;;
67193;SDS011;54121;53.508;49.422;2023-03-12T10:44:57;12.20;;;7.97;;
67193;SDS011;54121;53.508;49.422;2023-03-12T10:47:33;10.98;;;8.50;;
67193;SDS011;54121;53.508;49.422;2023-03-12T10:52:42;10.52;;;8.73;;
67193;SDS011;54121;53.508;49.422;2023-03-12T10:55:19;11.02;;;8.43;;
67193;SDS011;54121;53.508;49.422;2023-03-12T10:58:08;9.00;;;7.47;;
67193;SDS011;54121;53.508;49.422;2023-03-12T11:00:58;11.07;;;9.02;;
67193;SDS011;54121;53.508;49.422;2023-03-12T11:03:26;9.75;;;7.93;;
67193;SDS011;54121;53.508;49.422;2023-03-12T11:05:55;12.38;;;8.68;;
67193;SDS011;54121;53.508;49.422;2023-03-12T11:08:34;9.80;;;8.80;;
67193;SDS011;54121;53.508;49.422;2023-03-12T11:11:03;10.18;;;5.97;;
67193;SDS011;54121;53.508;49.422;2023-03-12T11:13:36;9.00;;;7.95;;
67193;SDS011;54121;53.508;49.422;2023-03-12T11:19:04;8.98;;;7.55;;
67193;SDS011;54121;53.508;49.422;2023-03-12T11:21:34;10.15;;;8.18;;
67193;SDS011;54121;53.508;49.422;2023-03-12T11:24:07;8.95;;;7.63;;
67193;SDS011;54121;53.508;49.422;2023-03-12T11:26:43;8.85;;;7.75;;
67193;SDS011;54121;53.508;49.422;2023-03-12T11:29:28;10.27;;;6.90;;
67193;SDS011;54121;53.508;49.422;2023-03-12T11:34:54;9.90;;;7.70;;
67193;SDS011;54121;53.508;49.422;2023-03-12T11:37:26;6.65;;;6.03;;
67193;SDS011;54121;53.508;49.422;2023-03-12T11:40:16;7.90;;;6.90;;
67193;SDS011;54121;53.508;49.422;2023-03-12T11:58:49;10.15;;;7.93;;
67193;SDS011;54121;53.508;49.422;2023-03-12T12:10:06;10.32;;;7.30;;
67193;SDS011;54121;53.508;49.422;2023-03-12T12:21:47;10.70;;;6.63;;
67193;SDS011;54121;53.508;49.422;2023-03-12T12:26:43;8.05;;;6.45;;
67193;SDS011;54121;53.508;49.422;2023-03-12T12:32:31;9.02;;;7.03;;
67193;SDS011;54121;53.508;49.422;2023-03-12T12:37:57;9.50;;;6.63;;
67193;SDS011;54121;53.508;49.422;2023-03-12T12:40:43;11.00;;;5.65;;
67193;SDS011;54121;53.508;49.422;2023-03-12T12:43:32;10.27;;;5.10;;
67193;SDS011;54121;53.508;49.422;2023-03-12T12:46:05;9.40;;;6.40;;
67193;SDS011;54121;53.508;49.422;2023-03-12T12:48:43;7.30;;;5.70;;
67193;SDS011;54121;53.508;49.422;2023-03-12T12:51:15;5.75;;;4.60;;
67193;SDS011;54121;53.508;49.422;2023-03-12T12:54:06;10.20;;;5.70;;
67193;SDS011;54121;53.508;49.422;2023-03-12T12:59:33;8.38;;;5.50;;
67193;SDS011;54121;53.508;49.422;2023-03-12T13:02:15;8.43;;;5.43;;
67193;SDS011;54121;53.508;49.422;2023-03-12T13:04:45;8.02;;;4.57;;
67193;SDS011;54121;53.508;49.422;2023-03-12T13:14:58;7.20;;;5.53;;
67193;SDS011;54121;53.508;49.422;2023-03-12T13:20:23;7.15;;;3.75;;
67193;SDS011;54121;53.508;49.422;2023-03-12T13:23:10;8.25;;;4.97;;
67193;SDS011;54121;53.508;49.422;2023-03-12T13:36:26;5.13;;;3.25;;
67193;SDS011;54121;53.508;49.422;2023-03-12T13:41:34;10.50;;;5.45;;
67193;SDS011;54121;53.508;49.422;2023-03-12T13:46:59;6.38;;;4.50;;
67193;SDS011;54121;53.508;49.422;2023-03-12T13:52:38;5.50;;;3.15;;
67193;SDS011;54121;53.508;49.422;2023-03-12T13:57:49;7.13;;;4.80;;
67193;SDS011;54121;53.508;49.422;2023-03-12T14:03:35;5.72;;;3.85;;
67193;SDS011;54121;53.508;49.422;2023-03-12T14:06:08;6.78;;;4.75;;
67193;SDS011;54121;53.508;49.422;2023-03-12T14:17:28;4.78;;;4.13;;
67193;SDS011;54121;53.508;49.422;2023-03-12T14:20:00;6.63;;;4.03;;
67193;SDS011;54121;53.508;49.422;2023-03-12T14:22:32;6.20;;;4.00;;
67193;SDS011;54121;53.508;49.422;2023-03-12T14:25:04;5.93;;;4.40;;
67193;SDS011;54121;53.508;49.422;2023-03-12T14:27:47;9.32;;;4.10;;
67193;SDS011;54121;53.508;49.422;2023-03-12T14:32:46;5.82;;;3.17;;
67193;SDS011;54121;53.508;49.422;2023-03-12T14:35:22;8.07;;;3.75;;
67193;SDS011;54121;53.508;49.422;2023-03-12T14:38:04;3.47;;;3.13;;
67193;SDS011;54121;53.508;49.422;2023-03-12T14:40:54;5.22;;;3.08;;
67193;SDS011;54121;53.508;49.422;2023-03-12T14:43:38;5.97;;;3.97;;
67193;SDS011;54121;53.508;49.422;2023-03-12T14:46:15;6.00;;;4.15;;
67193;SDS011;54121;53.508;49.422;2023-03-12T14:48:49;2.75;;;2.17;;
67193;SDS011;54121;53.508;49.422;2023-03-12T14:51:23;5.35;;;3.08;;
67193;SDS011;54121;53.508;49.422;2023-03-12T14:53:51;6.10;;;3.50;;
67193;SDS011;54121;53.508;49.422;2023-03-12T14:58:50;5.38;;;2.70;;
67193;SDS011;54121;53.508;49.422;2023-03-12T15:01:20;5.55;;;3.72;;
67193;SDS011;54121;53.508;49.422;2023-03-12T15:03:54;4.50;;;2.58;;
67193;SDS011;54121;53.508;49.422;2023-03-12T15:09:03;3.42;;;2.97;;
67193;SDS011;54121;53.508;49.422;2023-03-12T15:14:04;3.67;;;2.30;;
67193;SDS011;54121;53.508;49.422;2023-03-12T15:16:35;3.92;;;3.22;;
67193;SDS011;54121;53.508;49.422;2023-03-12T15:19:02;8.30;;;4.88;;
67193;SDS011;54121;53.508;49.422;2023-03-12T15:21:32;4.70;;;3.77;;
67193;SDS011;54121;53.508;49.422;2023-03-12T15:24:00;6.50;;;3.47;;
67193;SDS011;54121;53.508;49.422;2023-03-12T15:26:29;3.35;;;2.25;;
67193;SDS011;54121;53.508;49.422;2023-03-12T15:29:01;5.22;;;3.38;;
67193;SDS011;54121;53.508;49.422;2023-03-12T15:31:53;5.38;;;2.55;;
67193;SDS011;54121;53.508;49.422;2023-03-12T15:34:41;3.53;;;2.63;;
67193;SDS011;54121;53.508;49.422;2023-03-12T15:37:19;5.15;;;3.78;;
67193;SDS011;54121;53.508;49.422;2023-03-12T15:39:54;7.70;;;3.95;;
67193;SDS011;54121;53.508;49.422;2023-03-12T15:42:22;4.15;;;2.85;;
67193;SDS011;54121;53.508;49.422;2023-03-12T15:45:00;4.75;;;3.60;;
67193;SDS011;54121;53.508;49.422;2023-03-12T15:47:30;3.63;;;2.33;;
67193;SDS011;54121;53.508;49.422;2023-03-12T15:50:11;5.70;;;3.38;;
67193;SDS011;54121;53.508;49.422;2023-03-12T15:52:59;3.47;;;2.95;;
67193;SDS011;54121;53.508;49.422;2023-03-12T15:55:27;5.03;;;3.03;;
67193;SDS011;54121;53.508;49.422;2023-03-12T15:57:55;3.60;;;2.83;;
67193;SDS011;54121;53.508;49.422;2023-03-12T16:00:42;4.75;;;2.90;;
67193;SDS011;54121;53.508;49.422;2023-03-12T16:03:16;5.45;;;2.70;;
67193;SDS011;54121;53.508;49.422;2023-03-12T16:05:45;6.25;;;3.10;;
67193;SDS011;54121;53.508;49.422;2023-03-12T16:08:20;3.38;;;1.88;;
67193;SDS011;54121;53.508;49.422;2023-03-12T16:11:17;3.38;;;1.98;;
67193;SDS011;54121;53.508;49.422;2023-03-12T16:13:47;3.20;;;2.10;;
67193;SDS011;54121;53.508;49.422;2023-03-12T16:16:15;3.13;;;2.42;;
67193;SDS011;54121;53.508;49.422;2023-03-12T16:18:42;4.80;;;1.95;;
67193;SDS011;54121;53.508;49.422;2023-03-12T16:21:09;4.13;;;2.47;;
67193;SDS011;54121;53.508;49.422;2023-03-12T16:23:36;3.13;;;2.05;;
67193;SDS011;54121;53.508;49.422;2023-03-12T16:26:04;5.70;;;2.67;;
67193;SDS011;54121;53.508;49.422;2023-03-12T16:28:32;3.42;;;2.05;;
67193;SDS011;54121;53.508;49.422;2023-03-12T16:31:01;5.78;;;2.47;;
67193;SDS011;54121;53.508;49.422;2023-03-12T16:33:28;3.95;;;2.40;;
67193;SDS011;54121;53.508;49.422;2023-03-12T16:35:55;3.20;;;2.38;;
67193;SDS011;54121;53.508;49.422;2023-03-12T16:38:22;3.38;;;2.05;;
67193;SDS011;54121;53.508;49.422;2023-03-12T16:40:51;2.58;;;1.70;;
67193;SDS011;54121;53.508;49.422;2023-03-12T16:43:22;3.90;;;2.17;;
67193;SDS011;54121;53.508;49.422;2023-03-12T16:45:51;5.22;;;2.42;;
67193;SDS011;54121;53.508;49.422;2023-03-12T16:48:20;1.63;;;1.27;;